Time;durP1;ratioP1;P1;durP2;ratioP2;P2;SDS_P1;SDS_P2;PMS_P1;PMS_P2;Temp;Humidity;BMP_temperature;BMP_pressure;BME280_temperature;BME280_humidity;BME280_pressure;Samples;Min_cycle;Max_cycle;Signal;HPM_P1;HPM_P2
2022/11/15 00:01:21;;;;;;;30.52;20.48;;;7.60;99.90;;;;;;6141202;23;20462;-92
2022/11/15 00:03:55;;;;;;;28.02;20.73;;;7.50;99.90;;;;;;6140917;23;20164;-93
2022/11/15 00:06:27;;;;;;;29.60;20.92;;;7.30;99.90;;;;;;6140918;23;20013;-92
2022/11/15 00:08:53;;;;;;;30.73;21.60;;;7.30;99.90;;;;;;6141765;23;20020;-92
2022/11/15 00:11:18;;;;;;;32.92;20.70;;;7.20;99.90;;;;;;6141977;23;20013;-92
2022/11/15 00:13:44;;;;;;;29.83;21.05;;;7.10;99.90;;;;;;6141557;23;20059;-93
2022/11/15 00:16:13;;;;;;;31.00;21.60;;;7.00;99.90;;;;;;6141512;23;20044;-92
2022/11/15 00:18:39;;;;;;;30.52;20.83;;;7.00;99.90;;;;;;6140228;23;20064;-93
2022/11/15 00:21:07;;;;;;;31.13;20.45;;;6.90;99.90;;;;;;6141531;23;20013;-93
2022/11/15 00:23:33;;;;;;;31.73;21.63;;;6.90;99.90;;;;;;6141906;23;20024;-92
2022/11/15 00:25:59;;;;;;;33.72;21.90;;;6.90;99.90;;;;;;6142794;23;20039;-92
2022/11/15 00:28:29;;;;;;;31.83;22.17;;;6.90;99.90;;;;;;6142494;23;20013;-92
2022/11/15 00:31:04;;;;;;;35.33;21.10;;;6.90;99.90;;;;;;6272863;22;20029;-92
2022/11/15 00:33:36;;;;;;;33.28;21.75;;;7.00;99.90;;;;;;6140660;23;20021;-93
2022/11/15 00:36:08;;;;;;;32.55;22.25;;;7.00;99.90;;;;;;6140976;23;20021;-92
2022/11/15 00:38:44;;;;;;;33.05;22.90;;;7.10;99.90;;;;;;6140250;23;20013;-93
2022/11/15 00:41:10;;;;;;;33.65;23.05;;;7.20;99.90;;;;;;6143044;23;20017;-92
2022/11/15 00:43:43;;;;;;;30.90;21.90;;;7.20;99.90;;;;;;6141995;23;20009;-92
2022/11/15 00:46:09;;;;;;;31.08;21.38;;;7.40;99.90;;;;;;6141139;23;20088;-92
2022/11/15 00:48:36;;;;;;;31.83;22.35;;;7.30;99.90;;;;;;6165842;23;20021;-92
2022/11/15 00:51:04;;;;;;;34.22;22.17;;;7.40;99.90;;;;;;6141609;23;20069;-94
2022/11/15 00:53:30;;;;;;;33.20;22.02;;;7.40;99.90;;;;;;6140425;23;20049;-92
2022/11/15 00:55:56;;;;;;;30.50;21.27;;;7.40;99.90;;;;;;6142167;23;20020;-92
2022/11/15 00:58:21;;;;;;;33.30;22.65;;;7.50;99.90;;;;;;6140913;23;20017;-90
2022/11/15 01:00:47;;;;;;;31.90;22.02;;;7.50;99.90;;;;;;6141590;23;20028;-92
2022/11/15 01:03:13;;;;;;;32.05;22.00;;;7.50;99.90;;;;;;6139415;23;20021;-92
2022/11/15 01:05:39;;;;;;;31.33;23.08;;;7.50;99.90;;;;;;6141175;23;20207;-92
2022/11/15 01:08:05;;;;;;;31.05;20.50;;;7.40;99.90;;;;;;6140850;23;20059;-91
2022/11/15 01:10:30;;;;;;;31.58;22.50;;;7.40;99.90;;;;;;6139659;23;20278;-93
2022/11/15 01:12:56;;;;;;;30.75;20.98;;;7.40;99.90;;;;;;6140122;23;20040;-92
2022/11/15 01:15:25;;;;;;;33.83;22.00;;;7.40;99.90;;;;;;6166655;23;20012;-92
2022/11/15 01:17:50;;;;;;;30.83;21.30;;;7.40;99.90;;;;;;6140173;23;20017;-91
2022/11/15 01:20:19;;;;;;;32.65;21.75;;;7.50;99.90;;;;;;6141623;23;20044;-91
2022/11/15 01:22:48;;;;;;;31.98;21.45;;;7.50;99.90;;;;;;6140635;23;20040;-92
2022/11/15 01:25:17;;;;;;;34.67;22.70;;;7.50;99.90;;;;;;6141363;23;20036;-93
2022/11/15 01:27:42;;;;;;;33.33;22.73;;;7.50;99.90;;;;;;6141832;23;20021;-92
2022/11/15 01:30:09;;;;;;;32.63;22.58;;;7.50;99.90;;;;;;6141285;23;20036;-91
2022/11/15 01:32:34;;;;;;;34.67;22.85;;;7.50;99.90;;;;;;6140090;23;20075;-92
2022/11/15 01:35:00;;;;;;;33.83;21.70;;;7.50;99.90;;;;;;6141104;23;20017;-91
2022/11/15 01:37:26;;;;;;;31.95;21.83;;;7.60;99.90;;;;;;6141100;23;20021;-92
2022/11/15 01:39:57;;;;;;;33.47;22.63;;;7.60;99.90;;;;;;6165844;23;20784;-91
2022/11/15 01:42:22;;;;;;;33.30;22.90;;;7.50;99.90;;;;;;6140690;23;20095;-93
2022/11/15 01:44:55;;;;;;;31.65;22.30;;;7.50;99.90;;;;;;6141245;23;20044;-91
2022/11/15 01:47:27;;;;;;;34.25;21.55;;;7.50;99.90;;;;;;6141030;23;20204;-93
2022/11/15 01:50:05;;;;;;;28.98;20.50;;;7.60;99.90;;;;;;6140599;23;20028;-91
2022/11/15 01:52:39;;;;;;;32.60;21.77;;;7.60;99.90;;;;;;6141494;23;20013;-92
2022/11/15 01:55:22;;;;;;;31.27;20.65;;;7.60;99.90;;;;;;6141168;23;20096;-93
2022/11/15 01:57:56;;;;;;;32.58;21.42;;;7.60;99.90;;;;;;6140421;23;20069;-92
2022/11/15 02:00:21;;;;;;;33.20;21.27;;;7.60;99.90;;;;;;6141331;23;20013;-92
2022/11/15 02:02:47;;;;;;;32.28;19.67;;;7.60;99.90;;;;;;6115167;23;20029;-92
2022/11/15 02:05:16;;;;;;;29.88;20.33;;;7.60;99.90;;;;;;6116084;23;20452;-93
2022/11/15 02:07:42;;;;;;;31.05;19.35;;;7.60;99.90;;;;;;6116573;23;20017;-91
2022/11/15 02:10:12;;;;;;;33.47;20.17;;;7.60;99.90;;;;;;6116748;23;20116;-91
2022/11/15 02:12:38;;;;;;;30.80;20.50;;;7.60;99.90;;;;;;6116687;23;20025;-92
2022/11/15 02:15:08;;;;;;;34.78;22.60;;;7.60;99.90;;;;;;6116626;23;20025;-91
2022/11/15 02:18:08;;;;;;;33.58;20.95;;;7.70;99.90;;;;;;6116047;23;20021;-93
2022/11/15 02:20:52;;;;;;;36.22;21.48;;;7.60;99.90;;;;;;6116466;23;20013;-91
2022/11/15 02:23:44;;;;;;;35.20;20.70;;;7.60;99.90;;;;;;6116647;23;20021;-91
2022/11/15 02:26:36;;;;;;;34.10;20.60;;;7.60;99.90;;;;;;6116885;22;20142;-92
2022/11/15 02:29:11;;;;;;;33.28;20.23;;;7.70;99.90;;;;;;6142574;23;20048;-92
2022/11/15 02:31:57;;;;;;;34.25;21.42;;;7.60;99.90;;;;;;6116654;23;20048;-91
2022/11/15 02:35:00;;;;;;;33.28;21.77;;;7.60;99.90;;;;;;6116452;23;20016;-93
2022/11/15 02:37:53;;;;;;;33.83;20.67;;;7.70;99.90;;;;;;6115768;23;20056;-92
2022/11/15 02:40:54;;;;;;;34.65;21.33;;;7.70;99.90;;;;;;6117324;22;20017;-92
2022/11/15 02:43:57;;;;;;;38.55;22.17;;;7.70;99.90;;;;;;6117359;23;20462;-92
2022/11/15 02:47:20;;;;;;;38.85;22.25;;;7.70;99.90;;;;;;6116594;23;20519;-91
2022/11/15 02:49:37;;;;;;;35.85;21.60;;;7.70;99.90;;;;;;6153218;22;20029;-92
2022/11/15 02:52:03;;;;;;;37.95;22.58;;;7.70;99.90;;;;;;6141424;23;20067;-92
2022/11/15 02:54:36;;;;;;;40.95;21.80;;;7.70;99.90;;;;;;6116751;23;20021;-92
2022/11/15 02:57:12;;;;;;;37.97;21.88;;;7.80;99.90;;;;;;6116763;23;20291;-93
2022/11/15 02:59:50;;;;;;;38.63;22.25;;;7.70;99.90;;;;;;6116748;23;20057;-93
2022/11/15 03:02:55;;;;;;;37.00;23.15;;;7.80;99.90;;;;;;6135886;23;20233;-92
2022/11/15 03:05:23;;;;;;;36.00;22.75;;;7.80;99.90;;;;;;6183599;23;20101;-92
2022/11/15 03:07:58;;;;;;;35.15;22.13;;;7.80;99.90;;;;;;6140144;23;20024;-93
2022/11/15 03:10:34;;;;;;;36.03;21.60;;;7.80;99.90;;;;;;6140601;23;20181;-90
2022/11/15 03:13:07;;;;;;;34.95;22.15;;;7.80;99.90;;;;;;6167043;23;20552;-91
2022/11/15 03:15:41;;;;;;;33.67;21.17;;;7.80;99.90;;;;;;6142376;23;20021;-92
2022/11/15 03:18:35;;;;;;;38.28;21.65;;;7.90;99.90;;;;;;6142197;23;20017;-90
2022/11/15 03:21:04;;;;;;;36.55;22.60;;;7.80;99.90;;;;;;6142107;23;20027;-93
2022/11/15 03:23:31;;;;;;;38.33;22.20;;;7.90;99.90;;;;;;6142982;23;20040;-92
2022/11/15 03:25:59;;;;;;;37.38;21.75;;;7.90;99.90;;;;;;6142874;23;20020;-92
2022/11/15 03:28:37;;;;;;;42.42;22.42;;;7.90;99.90;;;;;;6143526;23;20017;-93
2022/11/15 03:33:53;;;;;;;36.90;21.45;;;7.90;99.90;;;;;;6165352;23;20029;-92
2022/11/15 03:36:21;;;;;;;35.63;21.60;;;8.00;99.90;;;;;;6141904;23;20050;-93
2022/11/15 03:38:46;;;;;;;37.80;21.70;;;8.00;99.90;;;;;;6141906;23;20023;-92
2022/11/15 03:41:38;;;;;;;37.83;21.55;;;8.00;99.90;;;;;;6142592;23;20096;-91
2022/11/15 03:44:31;;;;;;;40.80;22.38;;;8.00;99.90;;;;;;6143967;23;20480;-93
2022/11/15 03:47:06;;;;;;;41.00;22.48;;;8.00;99.90;;;;;;6141784;23;20013;-94
2022/11/15 03:49:38;;;;;;;42.70;23.27;;;8.00;99.90;;;;;;6141939;23;20100;-93
2022/11/15 03:52:05;;;;;;;41.70;23.55;;;8.10;99.90;;;;;;6142769;23;20013;-93
2022/11/15 03:54:30;;;;;;;42.28;23.13;;;8.10;99.90;;;;;;6142919;23;20013;-92
2022/11/15 03:56:56;;;;;;;43.15;23.83;;;8.10;99.90;;;;;;6143313;23;20022;-92
2022/11/15 03:59:25;;;;;;;50.35;25.58;;;8.10;99.90;;;;;;6142744;23;20017;-93
2022/11/15 04:01:51;;;;;;;49.38;23.92;;;8.10;99.90;;;;;;6143022;23;20092;-93
2022/11/15 04:04:19;;;;;;;47.78;24.23;;;8.20;99.90;;;;;;6142982;23;20085;-92
2022/11/15 04:06:45;;;;;;;47.92;24.10;;;8.20;99.90;;;;;;6141110;23;20107;-93
2022/11/15 04:09:10;;;;;;;53.00;26.00;;;8.20;99.90;;;;;;6142370;23;20017;-92
2022/11/15 04:11:36;;;;;;;52.00;25.27;;;8.20;99.90;;;;;;6142396;23;20470;-93
2022/11/15 04:14:05;;;;;;;58.47;25.98;;;8.20;99.90;;;;;;6142471;23;20066;-93
2022/11/15 04:16:33;;;;;;;52.60;26.08;;;8.30;99.90;;;;;;6143144;23;20389;-93
2022/11/15 04:24:30;;;;;;;67.53;28.08;;;8.30;99.90;;;;;;6166824;23;20039;-93
2022/11/15 04:26:56;;;;;;;56.92;27.70;;;8.40;99.90;;;;;;6142699;23;20112;-93
2022/11/15 04:29:33;;;;;;;61.70;28.15;;;8.30;99.90;;;;;;6166655;23;20021;-92
2022/11/15 04:31:59;;;;;;;57.80;28.05;;;8.40;99.90;;;;;;6142273;23;20017;-92
2022/11/15 04:34:28;;;;;;;57.53;28.10;;;8.40;99.90;;;;;;6140311;23;20074;-92
2022/11/15 04:37:12;;;;;;;59.72;28.42;;;8.50;99.90;;;;;;6141766;23;20021;-92
2022/11/15 04:39:41;;;;;;;69.45;27.63;;;8.40;99.90;;;;;;6141591;23;20021;-93
2022/11/15 04:42:08;;;;;;;60.20;27.67;;;8.40;99.90;;;;;;6141725;23;20013;-92
2022/11/15 04:44:33;;;;;;;68.88;29.33;;;8.40;99.90;;;;;;6142869;23;20059;-92
2022/11/15 04:47:03;;;;;;;66.50;29.98;;;8.50;99.90;;;;;;6142490;23;20017;-93
2022/11/15 04:49:29;;;;;;;57.50;26.35;;;8.50;99.90;;;;;;6141574;23;20130;-92
2022/11/15 04:51:59;;;;;;;65.60;27.42;;;8.60;99.90;;;;;;6136465;23;20029;-93
2022/11/15 04:54:25;;;;;;;57.78;25.17;;;8.60;99.90;;;;;;6142257;23;20052;-92
2022/11/15 04:56:50;;;;;;;66.10;28.85;;;8.60;99.90;;;;;;6142472;23;20028;-93
2022/11/15 04:59:16;;;;;;;55.85;27.33;;;8.60;99.90;;;;;;6142123;23;20017;-93
2022/11/15 05:01:42;;;;;;;67.72;27.95;;;8.60;99.90;;;;;;6141931;23;20140;-92
2022/11/15 05:04:19;;;;;;;68.30;29.17;;;8.70;99.90;;;;;;6140650;23;20050;-93
2022/11/15 05:06:51;;;;;;;73.90;30.13;;;8.80;99.90;;;;;;6141344;23;20050;-93
2022/11/15 05:09:18;;;;;;;79.00;32.03;;;8.80;99.90;;;;;;6141413;23;20099;-93
2022/11/15 05:11:53;;;;;;;78.70;30.80;;;8.80;99.90;;;;;;6142406;23;20021;-93
2022/11/15 05:14:19;;;;;;;72.78;30.83;;;8.80;99.90;;;;;;6141981;23;20017;-92
2022/11/15 05:16:50;;;;;;;72.00;31.05;;;8.80;99.90;;;;;;6142142;23;20049;-93
2022/11/15 05:19:16;;;;;;;80.55;32.10;;;8.90;99.90;;;;;;6142432;23;20017;-92
2022/11/15 05:21:45;;;;;;;84.45;33.45;;;8.90;99.90;;;;;;6142814;23;20096;-93
2022/11/15 05:24:11;;;;;;;88.63;33.75;;;8.90;99.90;;;;;;6142031;23;20225;-93
2022/11/15 05:26:37;;;;;;;80.72;32.83;;;9.00;99.90;;;;;;6141399;23;20009;-93
2022/11/15 05:29:02;;;;;;;89.03;35.33;;;9.00;99.90;;;;;;6142167;23;20021;-93
2022/11/15 05:31:31;;;;;;;88.03;34.08;;;9.10;99.90;;;;;;6166704;22;20017;-92
2022/11/15 05:34:00;;;;;;;92.88;36.03;;;9.10;99.90;;;;;;6140538;23;20017;-92
2022/11/15 05:36:38;;;;;;;91.78;35.70;;;9.10;99.90;;;;;;6271395;22;20533;-92
2022/11/15 05:39:05;;;;;;;99.10;34.95;;;9.20;99.90;;;;;;6140672;23;20320;-93
2022/11/15 05:41:36;;;;;;;91.93;35.72;;;9.30;99.90;;;;;;6142250;23;20016;-93
2022/11/15 05:44:07;;;;;;;100.68;36.28;;;9.30;99.90;;;;;;6142857;23;20017;-92
2022/11/15 05:46:37;;;;;;;93.95;36.05;;;9.30;99.90;;;;;;6141358;23;20017;-92
2022/11/15 05:49:06;;;;;;;101.43;37.63;;;9.40;99.90;;;;;;6141067;23;20020;-93
2022/11/15 05:51:31;;;;;;;105.60;38.78;;;9.50;99.90;;;;;;6141005;23;20131;-93
2022/11/15 05:53:59;;;;;;;107.32;40.50;;;9.60;99.90;;;;;;6142018;23;20060;-93
2022/11/15 05:56:28;;;;;;;107.47;38.22;;;9.60;99.90;;;;;;6141874;23;20017;-93
2022/11/15 05:58:56;;;;;;;110.50;40.78;;;9.60;99.90;;;;;;6166632;23;20510;-93
2022/11/15 06:01:22;;;;;;;103.55;39.80;;;9.70;99.90;;;;;;6166679;23;20021;-92
2022/11/15 06:03:48;;;;;;;111.50;41.47;;;9.70;99.90;;;;;;6140800;23;20036;-93
2022/11/15 06:06:14;;;;;;;104.45;39.72;;;9.70;99.90;;;;;;6141484;23;20445;-93
2022/11/15 06:08:39;;;;;;;114.50;43.25;;;9.70;99.90;;;;;;6141638;23;20127;-94
2022/11/15 06:11:09;;;;;;;105.03;41.85;;;9.80;99.90;;;;;;6143121;23;20388;-92
2022/11/15 06:13:35;;;;;;;102.50;41.67;;;9.80;99.90;;;;;;6142156;23;20171;-92
2022/11/15 06:16:01;;;;;;;100.93;41.40;;;9.90;99.90;;;;;;6142211;23;20511;-91
2022/11/15 06:18:26;;;;;;;98.13;40.95;;;9.90;99.90;;;;;;6141422;23;20101;-93
2022/11/15 06:20:58;;;;;;;94.03;40.83;;;10.00;99.90;;;;;;6141352;23;20017;-92
2022/11/15 06:23:30;;;;;;;89.47;37.33;;;10.00;99.90;;;;;;6142066;23;20790;-92
2022/11/15 06:25:58;;;;;;;85.68;35.45;;;10.10;99.90;;;;;;6141896;23;20098;-91
2022/11/15 06:28:24;;;;;;;84.82;36.92;;;10.10;99.90;;;;;;6140740;23;20104;-93
2022/11/15 06:30:56;;;;;;;87.40;38.58;;;10.10;99.90;;;;;;6141358;23;20053;-92
2022/11/15 06:33:21;;;;;;;89.47;36.60;;;10.20;99.90;;;;;;6140335;23;20131;-93
2022/11/15 06:35:47;;;;;;;100.93;36.25;;;10.30;99.90;;;;;;6140810;23;20061;-92
2022/11/15 06:38:13;;;;;;;91.88;36.75;;;10.30;99.90;;;;;;6143033;22;20419;-93
2022/11/15 06:40:39;;;;;;;89.35;36.28;;;10.40;99.90;;;;;;6142815;23;20028;-92
2022/11/15 06:43:05;;;;;;;94.45;37.38;;;10.40;99.90;;;;;;6142280;23;20048;-93
2022/11/15 06:45:32;;;;;;;102.85;37.90;;;10.40;99.90;;;;;;6142042;23;20036;-92
2022/11/15 06:47:58;;;;;;;91.53;38.05;;;10.50;99.90;;;;;;6140943;23;20109;-92
2022/11/15 06:50:24;;;;;;;95.05;38.97;;;10.50;99.90;;;;;;6143169;23;20028;-93
2022/11/15 06:52:50;;;;;;;85.00;34.00;;;10.50;99.90;;;;;;6168387;23;20070;-93
2022/11/15 06:55:19;;;;;;;97.40;36.15;;;10.50;99.90;;;;;;6144022;23;20013;-93
2022/11/15 06:57:50;;;;;;;82.53;34.50;;;10.50;99.90;;;;;;6142815;23;20490;-92
2022/11/15 07:00:17;;;;;;;83.93;34.80;;;10.50;99.90;;;;;;6143713;23;20024;-92
2022/11/15 07:02:43;;;;;;;84.88;33.90;;;10.60;99.90;;;;;;6117332;23;20024;-93
2022/11/15 07:05:10;;;;;;;83.43;34.45;;;10.60;99.90;;;;;;6118378;23;20020;-92
2022/11/15 07:07:41;;;;;;;82.40;32.92;;;10.60;99.90;;;;;;6119654;23;20021;-92
2022/11/15 07:10:07;;;;;;;73.35;34.42;;;10.60;99.90;;;;;;6119759;23;20017;-93
2022/11/15 07:12:33;;;;;;;78.43;33.53;;;10.70;99.90;;;;;;6119109;23;20021;-93
2022/11/15 07:14:59;;;;;;;76.47;31.77;;;10.60;99.90;;;;;;6118880;23;20040;-93
2022/11/15 07:17:24;;;;;;;71.65;31.13;;;10.70;99.90;;;;;;6116878;23;20324;-93
2022/11/15 07:19:50;;;;;;;74.38;32.10;;;10.70;99.90;;;;;;6141694;23;20024;-93
2022/11/15 07:22:16;;;;;;;75.70;33.35;;;10.80;99.90;;;;;;6118275;23;20012;-93
2022/11/15 07:24:41;;;;;;;78.40;32.45;;;10.80;99.90;;;;;;6117688;23;20012;-93
2022/11/15 07:27:09;;;;;;;74.00;33.58;;;10.80;99.90;;;;;;6141353;23;20017;-93
2022/11/15 07:29:35;;;;;;;74.32;33.33;;;10.80;99.90;;;;;;6143929;23;20060;-93
2022/11/15 07:32:01;;;;;;;75.78;32.53;;;10.90;99.90;;;;;;6118388;23;20017;-92
2022/11/15 07:34:26;;;;;;;81.00;35.10;;;10.80;99.90;;;;;;6117793;23;20020;-93
2022/11/15 07:36:52;;;;;;;69.90;31.70;;;10.90;99.90;;;;;;6118001;23;20092;-93
2022/11/15 07:39:18;;;;;;;73.20;31.17;;;10.90;99.90;;;;;;6117256;23;20338;-92
2022/11/15 07:41:44;;;;;;;70.38;30.85;;;10.90;99.90;;;;;;6118841;23;20024;-92
2022/11/15 07:44:12;;;;;;;69.40;30.88;;;10.90;99.90;;;;;;6118992;23;20073;-94
2022/11/15 07:46:38;;;;;;;60.80;28.67;;;11.00;99.90;;;;;;6118032;22;20457;-93
2022/11/15 07:49:04;;;;;;;63.55;28.48;;;11.10;99.90;;;;;;6117483;23;20116;-93
2022/11/15 07:51:30;;;;;;;58.28;29.05;;;11.00;99.90;;;;;;6117929;23;20017;-93
2022/11/15 07:53:55;;;;;;;58.55;29.27;;;11.10;99.90;;;;;;6142264;23;20456;-93
2022/11/15 07:56:21;;;;;;;67.57;30.08;;;11.20;99.90;;;;;;6118443;23;20021;-93
2022/11/15 07:58:47;;;;;;;60.78;28.17;;;11.20;99.90;;;;;;6117631;23;20028;-93
2022/11/15 08:01:13;;;;;;;52.92;28.08;;;11.20;99.90;;;;;;6126024;23;20017;-94
2022/11/15 08:03:38;;;;;;;53.38;26.83;;;11.20;99.90;;;;;;6116379;23;20152;-93
2022/11/15 08:06:04;;;;;;;59.63;28.10;;;11.30;99.90;;;;;;6118341;23;20031;-93
2022/11/15 08:08:30;;;;;;;53.10;27.42;;;11.30;99.90;;;;;;6118706;23;20081;-93
2022/11/15 08:10:58;;;;;;;51.72;28.35;;;11.30;99.90;;;;;;6118541;23;20175;-92
2022/11/15 08:13:24;;;;;;;54.22;27.80;;;11.40;99.90;;;;;;6118461;23;20013;-93
2022/11/15 08:15:49;;;;;;;54.58;26.73;;;11.50;99.90;;;;;;6117157;23;20480;-93
2022/11/15 08:18:16;;;;;;;48.88;26.73;;;11.40;99.90;;;;;;6116856;23;20403;-94
2022/11/15 08:20:43;;;;;;;48.03;26.73;;;11.50;99.90;;;;;;6117965;23;20276;-92
2022/11/15 08:23:11;;;;;;;44.25;26.23;;;11.50;99.90;;;;;;6117411;23;20017;-94
2022/11/15 08:25:38;;;;;;;46.65;25.98;;;11.50;99.90;;;;;;6117731;23;20021;-93
2022/11/15 08:28:06;;;;;;;46.95;25.60;;;11.50;99.90;;;;;;6117371;23;20013;-92
2022/11/15 08:30:42;;;;;;;42.35;25.13;;;11.50;99.90;;;;;;6119009;23;20021;-93
2022/11/15 08:33:11;;;;;;;43.25;22.98;;;11.50;99.90;;;;;;6117201;23;20013;-92
2022/11/15 08:35:36;;;;;;;44.70;24.15;;;11.50;99.90;;;;;;6118592;23;20051;-92
2022/11/15 08:38:05;;;;;;;44.72;23.42;;;11.60;99.90;;;;;;6117845;23;20017;-93
2022/11/15 08:40:31;;;;;;;41.45;23.48;;;11.70;99.90;;;;;;6117912;23;20023;-92
2022/11/15 08:42:58;;;;;;;40.83;23.40;;;11.70;99.90;;;;;;6116976;23;20013;-92
2022/11/15 08:45:24;;;;;;;35.97;23.17;;;11.60;99.90;;;;;;6118686;23;20017;-92
2022/11/15 08:47:50;;;;;;;38.47;21.98;;;11.60;99.90;;;;;;6115880;23;20017;-92
2022/11/15 08:50:16;;;;;;;41.28;22.98;;;11.70;99.90;;;;;;6117037;23;20286;-93
2022/11/15 08:52:41;;;;;;;35.03;21.80;;;11.80;99.90;;;;;;6117414;23;20101;-93
2022/11/15 08:55:13;;;;;;;35.83;21.65;;;11.80;99.90;;;;;;6116970;23;20032;-93
2022/11/15 08:57:39;;;;;;;34.35;21.00;;;11.90;99.90;;;;;;6117166;23;20017;-92
2022/11/15 09:00:05;;;;;;;34.50;20.15;;;11.90;99.90;;;;;;6117356;23;20202;-93
2022/11/15 09:02:31;;;;;;;32.15;20.52;;;11.80;99.90;;;;;;6139204;23;20503;-92
2022/11/15 09:04:57;;;;;;;32.08;19.98;;;11.80;99.90;;;;;;6141978;23;20085;-92
2022/11/15 09:07:26;;;;;;;35.33;19.75;;;11.80;99.90;;;;;;6141530;23;20350;-92
2022/11/15 09:09:54;;;;;;;33.28;20.60;;;11.90;99.90;;;;;;6142434;23;20398;-92
2022/11/15 09:12:20;;;;;;;30.98;19.23;;;11.90;99.90;;;;;;6141971;23;20066;-93
2022/11/15 09:14:45;;;;;;;30.52;20.63;;;11.90;99.90;;;;;;6142643;23;20017;-92
2022/11/15 09:17:17;;;;;;;30.25;19.75;;;12.00;99.90;;;;;;6140499;23;20021;-93
2022/11/15 09:19:45;;;;;;;32.20;18.75;;;11.90;99.90;;;;;;6141694;23;20339;-93
2022/11/15 09:22:11;;;;;;;31.95;20.40;;;11.90;99.90;;;;;;6141842;23;20020;-94
2022/11/15 09:24:37;;;;;;;30.80;19.33;;;11.90;99.90;;;;;;6140637;23;20316;-93
2022/11/15 09:27:02;;;;;;;29.27;19.40;;;11.90;99.90;;;;;;6140914;23;20009;-92
2022/11/15 09:29:28;;;;;;;27.67;18.40;;;12.00;99.90;;;;;;6140991;23;20021;-92
2022/11/15 09:31:57;;;;;;;28.38;18.73;;;12.10;99.90;;;;;;6141262;23;20108;-92
2022/11/15 09:34:22;;;;;;;31.00;19.35;;;12.20;99.90;;;;;;6140622;23;20049;-92
2022/11/15 09:36:48;;;;;;;28.75;19.15;;;12.20;99.90;;;;;;6140554;23;20086;-92
2022/11/15 09:39:14;;;;;;;27.27;17.52;;;12.20;99.90;;;;;;6140749;23;20074;-93
2022/11/15 09:42:01;;;;;;;28.55;18.98;;;12.30;99.90;;;;;;6141459;23;20013;-93
2022/11/15 09:44:37;;;;;;;26.02;18.02;;;12.30;99.90;;;;;;6140804;23;20392;-93
2022/11/15 09:47:15;;;;;;;27.00;17.17;;;12.30;99.90;;;;;;6141112;23;20070;-92
2022/11/15 09:49:41;;;;;;;25.48;17.80;;;12.20;99.90;;;;;;6139593;23;20048;-92
2022/11/15 09:52:09;;;;;;;25.65;17.65;;;12.20;99.90;;;;;;6140454;23;20013;-93
2022/11/15 09:54:41;;;;;;;25.67;18.02;;;12.20;99.90;;;;;;6142154;23;20017;-94
2022/11/15 09:57:18;;;;;;;25.55;18.05;;;12.10;99.90;;;;;;6141463;23;20013;-92
2022/11/15 10:00:05;;;;;;;26.13;17.80;;;12.20;99.90;;;;;;6141668;23;20021;-93
2022/11/15 10:02:58;;;;;;;24.00;16.77;;;12.20;99.90;;;;;;6140062;23;20075;-93
2022/11/15 10:05:25;;;;;;;24.50;17.00;;;12.30;99.90;;;;;;6140847;23;20509;-92
2022/11/15 10:08:15;;;;;;;24.05;17.10;;;12.40;99.90;;;;;;6139960;23;20341;-92
2022/11/15 10:10:48;;;;;;;25.00;17.67;;;12.40;99.90;;;;;;6140052;23;20016;-93
2022/11/15 10:13:22;;;;;;;28.23;17.35;;;12.40;99.90;;;;;;6140320;23;20025;-92
2022/11/15 10:15:48;;;;;;;29.33;18.02;;;12.50;99.90;;;;;;6141134;23;20358;-92
2022/11/15 10:18:34;;;;;;;26.40;17.60;;;12.50;99.90;;;;;;6139619;23;20050;-92
2022/11/15 10:21:02;;;;;;;;;;;12.50;99.90;;;;;;6141164;23;20332;-92
2022/11/15 10:23:29;;;;;;;24.15;16.27;;;12.70;99.90;;;;;;6141329;23;19920;-92
2022/11/15 10:25:58;;;;;;;23.27;16.70;;;12.70;99.90;;;;;;6141820;23;20065;-94
2022/11/15 10:28:30;;;;;;;24.27;15.55;;;12.70;99.90;;;;;;6142307;23;20044;-92
2022/11/15 10:31:01;;;;;;;21.58;15.23;;;12.60;99.90;;;;;;6142889;23;20028;-92
2022/11/15 10:33:29;;;;;;;24.80;16.60;;;12.50;99.90;;;;;;6140355;23;20021;-92
2022/11/15 10:36:13;;;;;;;22.48;15.00;;;12.50;99.90;;;;;;6141659;23;20021;-92
2022/11/15 10:38:48;;;;;;;20.23;15.13;;;12.40;99.90;;;;;;6141573;23;20044;-93
2022/11/15 10:41:15;;;;;;;19.92;14.77;;;12.40;99.90;;;;;;6141713;23;20017;-92
2022/11/15 10:43:42;;;;;;;22.55;15.73;;;12.40;99.90;;;;;;6142438;23;20017;-92
2022/11/15 10:46:23;;;;;;;23.80;15.45;;;12.30;99.90;;;;;;6143099;23;20112;-92
2022/11/15 10:48:49;;;;;;;23.70;15.77;;;12.40;99.90;;;;;;6141230;23;20017;-92
2022/11/15 10:51:28;;;;;;;22.70;15.95;;;12.40;99.90;;;;;;6140988;23;20368;-93
2022/11/15 10:53:56;;;;;;;26.15;16.60;;;12.40;99.90;;;;;;6141517;23;20084;-93
2022/11/15 10:56:24;;;;;;;23.65;16.23;;;12.50;99.90;;;;;;6142980;23;20485;-94
2022/11/15 10:58:57;;;;;;;25.33;16.98;;;12.50;99.90;;;;;;6141821;23;20020;-92
2022/11/15 11:01:25;;;;;;;25.48;16.70;;;12.60;99.90;;;;;;6142105;23;20040;-92
2022/11/15 11:04:08;;;;;;;25.73;17.10;;;12.60;99.90;;;;;;6140505;23;20433;-93
2022/11/15 11:06:53;;;;;;;23.02;15.95;;;12.60;99.90;;;;;;6142111;23;20156;-91
2022/11/15 11:09:35;;;;;;;23.35;15.98;;;12.80;99.90;;;;;;6141023;23;20097;-93
2022/11/15 11:12:01;;;;;;;20.15;14.98;;;12.80;99.90;;;;;;6140850;23;20059;-92
2022/11/15 11:14:27;;;;;;;21.08;14.90;;;12.80;99.90;;;;;;6141649;23;20017;-92
2022/11/15 11:17:08;;;;;;;23.73;15.43;;;12.90;99.90;;;;;;6141526;23;20454;-93
2022/11/15 11:19:46;;;;;;;22.25;15.70;;;12.90;99.90;;;;;;6141186;23;20017;-93
2022/11/15 11:22:56;;;;;;;22.23;15.35;;;13.30;99.90;;;;;;6141522;23;20017;-93
2022/11/15 11:25:46;;;;;;;19.45;14.98;;;13.60;99.90;;;;;;6141066;23;20013;-92
2022/11/15 11:28:44;;;;;;;18.35;13.57;;;13.70;99.90;;;;;;6141882;23;20572;-93
2022/11/15 11:31:32;;;;;;;19.83;13.50;;;13.70;99.90;;;;;;6143412;23;20021;-92
2022/11/15 11:34:35;;;;;;;18.25;13.23;;;13.80;99.90;;;;;;6140501;23;20345;-92
2022/11/15 11:37:29;;;;;;;16.33;12.13;;;13.70;99.90;;;;;;6142629;23;20520;-93
2022/11/15 11:40:08;;;;;;;14.38;11.52;;;13.70;99.90;;;;;;6142347;23;20177;-92
2022/11/15 11:42:59;;;;;;;14.45;10.90;;;13.80;99.90;;;;;;6142645;23;20020;-92
2022/11/15 11:46:04;;;;;;;13.48;10.38;;;13.70;99.90;;;;;;6142679;23;20017;-93
2022/11/15 11:49:04;;;;;;;12.77;10.60;;;13.60;99.90;;;;;;6152404;23;20370;-92
2022/11/15 11:51:55;;;;;;;13.68;9.93;;;13.50;99.90;;;;;;6142608;23;20322;-92
2022/11/15 11:54:42;;;;;;;12.75;9.27;;;13.40;99.90;;;;;;6142653;23;20078;-93
2022/11/15 11:57:36;;;;;;;10.77;8.60;;;13.40;99.90;;;;;;6142850;23;20115;-92
2022/11/15 12:00:27;;;;;;;10.75;8.52;;;13.40;99.90;;;;;;6142217;23;20021;-93
2022/11/15 12:03:17;;;;;;;10.48;7.82;;;13.50;99.90;;;;;;6140939;23;20082;-91
2022/11/15 12:05:48;;;;;;;8.85;7.07;;;13.40;99.90;;;;;;6142018;23;20021;-92
2022/11/15 12:08:22;;;;;;;9.57;7.65;;;13.40;99.90;;;;;;6142216;23;20418;-91
2022/11/15 12:11:08;;;;;;;10.02;6.80;;;13.20;99.90;;;;;;6143008;23;20475;-92
2022/11/15 12:13:36;;;;;;;11.40;7.00;;;13.00;99.90;;;;;;6165717;23;20017;-92
2022/11/15 12:16:18;;;;;;;9.02;6.07;;;13.20;99.90;;;;;;6141856;23;20044;-92
2022/11/15 12:18:48;;;;;;;8.23;6.30;;;13.20;99.90;;;;;;6141689;23;20017;-93
2022/11/15 12:21:21;;;;;;;12.07;5.88;;;13.30;99.90;;;;;;6141016;23;20253;-93
2022/11/15 12:23:51;;;;;;;7.93;5.30;;;13.30;99.90;;;;;;6166696;23;20013;-91
2022/11/15 12:26:23;;;;;;;6.72;5.05;;;13.30;99.90;;;;;;6142255;23;20059;-92
2022/11/15 12:28:54;;;;;;;8.93;4.90;;;13.30;99.90;;;;;;6141888;23;20044;-92
2022/11/15 12:31:39;;;;;;;7.75;5.20;;;13.30;99.90;;;;;;6142928;23;20017;-93
2022/11/15 12:34:19;;;;;;;9.50;5.57;;;13.30;99.90;;;;;;6141001;23;20021;-91
2022/11/15 12:36:46;;;;;;;7.78;5.70;;;13.30;99.90;;;;;;6141626;23;20497;-92
2022/11/15 12:39:13;;;;;;;7.07;5.35;;;13.10;99.90;;;;;;6141384;23;20009;-91
2022/11/15 12:41:43;;;;;;;8.77;5.63;;;13.10;99.90;;;;;;6142213;23;20017;-92
2022/11/15 12:44:31;;;;;;;8.45;4.50;;;13.00;99.90;;;;;;6142150;23;20019;-91
2022/11/15 12:46:56;;;;;;;9.35;5.20;;;13.10;99.90;;;;;;6142193;23;20720;-92
2022/11/15 12:49:28;;;;;;;9.07;5.25;;;13.30;99.90;;;;;;6140449;23;20020;-92
2022/11/15 12:51:57;;;;;;;8.38;5.35;;;13.30;99.90;;;;;;6141687;23;20053;-93
2022/11/15 12:54:22;;;;;;;7.20;4.88;;;13.40;99.90;;;;;;6141494;23;20067;-92
2022/11/15 12:57:03;;;;;;;6.55;4.50;;;13.60;99.90;;;;;;6142167;23;20310;-91
2022/11/15 13:00:01;;;;;;;10.75;5.13;;;13.60;99.90;;;;;;6141651;23;20017;-93
2022/11/15 13:02:33;;;;;;;8.02;5.30;;;13.60;99.90;;;;;;6140026;23;20017;-93
2022/11/15 13:05:20;;;;;;;8.18;5.07;;;13.50;99.90;;;;;;6140076;23;20062;-92